createdAt,value
2017-12-21T00:01:05.875Z,74.47
2017-12-21T00:03:33.575Z,56.00
2017-12-21T00:06:02.556Z,48.63
2017-12-21T00:08:31.817Z,50.33
2017-12-21T00:10:59.913Z,67.53
2017-12-21T00:13:28.420Z,53.37
2017-12-21T00:15:56.872Z,68.50
2017-12-21T00:18:24.596Z,44.07
2017-12-21T00:20:52.640Z,64.33
2017-12-21T00:23:20.317Z,71.63
2017-12-21T00:25:48.032Z,128.27
2017-12-21T00:28:15.709Z,76.70
2017-12-21T00:30:44.170Z,52.83
2017-12-21T00:33:11.887Z,57.70
2017-12-21T00:35:39.528Z,62.27
2017-12-21T00:38:07.161Z,52.00
2017-12-21T00:40:35.615Z,52.70
2017-12-21T00:43:03.250Z,44.83
2017-12-21T00:45:30.898Z,49.40
2017-12-21T00:47:58.720Z,42.83
2017-12-21T00:50:27.154Z,54.00
2017-12-21T00:52:54.792Z,58.37
2017-12-21T00:55:23.239Z,55.83
2017-12-21T00:57:50.947Z,41.57
2017-12-21T01:00:18.657Z,45.40
2017-12-21T01:02:46.338Z,49.37
2017-12-21T01:05:14.822Z,48.53
2017-12-21T01:07:42.521Z,50.30
2017-12-21T01:10:10.345Z,45.83
2017-12-21T01:12:38.844Z,51.37
2017-12-21T01:15:06.510Z,40.37
2017-12-21T01:17:34.233Z,46.20
2017-12-21T01:20:01.885Z,48.10
2017-12-21T01:22:29.546Z,49.30
2017-12-21T01:24:57.197Z,50.10
2017-12-21T01:27:24.969Z,42.17
2017-12-21T01:29:52.603Z,57.70
2017-12-21T01:32:20.342Z,47.20
2017-12-21T01:34:48.768Z,60.07
2017-12-21T01:37:16.526Z,41.43
2017-12-21T01:39:44.239Z,44.90
2017-12-21T01:42:11.896Z,43.37
2017-12-21T01:44:40.285Z,65.70
2017-12-21T01:47:08.002Z,45.80
2017-12-21T01:49:35.692Z,59.77
2017-12-21T01:52:04.143Z,57.10
2017-12-21T01:54:31.838Z,67.33
2017-12-21T01:57:00.299Z,78.20
2017-12-21T01:59:27.987Z,50.63
2017-12-21T02:01:56.592Z,48.53
2017-12-21T02:04:24.321Z,45.13
2017-12-21T02:06:52.803Z,38.10
2017-12-21T02:09:21.268Z,54.80
2017-12-21T02:11:48.927Z,67.00
2017-12-21T02:14:16.588Z,71.03
2017-12-21T02:16:44.291Z,71.57
2017-12-21T02:19:12.045Z,66.33
2017-12-21T02:21:40.470Z,50.67
2017-12-21T02:24:08.988Z,54.77
2017-12-21T02:26:36.606Z,52.77
2017-12-21T02:29:04.316Z,46.93
2017-12-21T02:31:32.014Z,52.67
2017-12-21T02:33:59.684Z,71.83
2017-12-21T02:36:27.320Z,46.83
2017-12-21T02:38:55.068Z,49.33
2017-12-21T02:41:23.498Z,57.30
2017-12-21T02:43:51.178Z,54.00
2017-12-21T02:46:18.868Z,59.77
2017-12-21T02:48:46.519Z,46.90
2017-12-21T02:51:14.190Z,53.53
2017-12-21T02:53:41.937Z,54.20
2017-12-21T02:56:09.610Z,55.73
2017-12-21T02:58:38.010Z,48.23
2017-12-21T03:01:06.444Z,55.80
2017-12-21T03:03:34.136Z,51.27
2017-12-21T03:06:01.752Z,64.10
2017-12-21T03:08:29.423Z,57.37
2017-12-21T03:10:57.061Z,46.37
2017-12-21T03:13:24.673Z,54.67
2017-12-21T03:15:52.324Z,52.70
2017-12-21T03:18:19.973Z,69.47
2017-12-21T03:20:47.592Z,59.27
2017-12-21T03:23:15.278Z,50.77
2017-12-21T03:25:42.931Z,51.63
2017-12-21T03:28:10.562Z,55.43
2017-12-21T03:30:38.994Z,67.60
2017-12-21T03:33:06.621Z,51.17
2017-12-21T03:35:34.293Z,51.17
2017-12-21T03:38:01.994Z,59.60
2017-12-21T03:40:29.780Z,64.10
2017-12-21T03:42:57.402Z,63.87
2017-12-21T03:45:25.130Z,68.03
2017-12-21T03:47:52.756Z,49.47
2017-12-21T03:50:20.463Z,53.57
2017-12-21T03:52:48.182Z,61.33
2017-12-21T03:55:15.808Z,58.53
2017-12-21T03:57:43.438Z,47.83
2017-12-21T04:00:11.134Z,58.93
2017-12-21T04:02:39.748Z,56.60
2017-12-21T04:05:07.379Z,61.20
2017-12-21T04:07:35.072Z,48.60
2017-12-21T04:10:02.713Z,51.83
2017-12-21T04:12:30.349Z,59.53
2017-12-21T04:14:58.096Z,55.03
2017-12-21T04:17:25.719Z,49.73
2017-12-21T04:19:53.378Z,53.03
2017-12-21T04:22:21.958Z,52.53
2017-12-21T04:24:49.591Z,54.47
2017-12-21T04:27:17.273Z,58.60
2017-12-21T04:29:44.940Z,47.63
2017-12-21T04:32:12.603Z,63.13
2017-12-21T04:34:41.031Z,49.20
2017-12-21T04:37:08.694Z,48.73
2017-12-21T04:39:36.418Z,48.50
2017-12-21T04:42:04.118Z,55.77
2017-12-21T04:44:31.853Z,53.13
2017-12-21T04:46:59.495Z,48.90
2017-12-21T04:49:27.155Z,54.47
2017-12-21T04:51:54.918Z,51.73
2017-12-21T04:54:22.606Z,51.03
2017-12-21T04:56:51.043Z,51.37
2017-12-21T04:59:19.207Z,48.10
2017-12-21T05:01:46.871Z,46.67
2017-12-21T05:04:14.473Z,43.57
2017-12-21T05:06:42.906Z,45.80
2017-12-21T05:09:10.592Z,50.57
2017-12-21T05:11:38.999Z,49.60
2017-12-21T05:14:07.469Z,41.53
2017-12-21T05:16:35.106Z,51.43
2017-12-21T05:19:02.764Z,44.73
2017-12-21T05:21:30.500Z,53.53
2017-12-21T05:23:58.174Z,43.37
2017-12-21T05:26:25.845Z,44.40
2017-12-21T05:28:53.507Z,38.70
2017-12-21T05:31:21.127Z,46.00
2017-12-21T05:33:48.823Z,47.97
2017-12-21T05:36:16.485Z,41.97
2017-12-21T05:38:44.143Z,39.30
2017-12-21T05:41:11.770Z,47.10
2017-12-21T05:43:39.478Z,33.20
2017-12-21T05:46:07.123Z,42.53
2017-12-21T05:48:34.788Z,39.97
2017-12-21T05:51:02.513Z,45.97
2017-12-21T05:53:30.138Z,43.30
2017-12-21T05:55:57.776Z,31.63
2017-12-21T05:58:25.447Z,34.23
2017-12-21T06:00:53.122Z,39.50
2017-12-21T06:03:20.762Z,39.33
2017-12-21T06:05:48.489Z,39.97
2017-12-21T06:08:16.131Z,34.43
2017-12-21T06:10:44.536Z,40.43
2017-12-21T06:13:12.262Z,36.77
2017-12-21T06:15:39.928Z,38.37
2017-12-21T06:18:07.612Z,33.70
2017-12-21T06:20:35.278Z,41.67
2017-12-21T06:23:02.910Z,38.87
2017-12-21T06:25:31.381Z,40.77
2017-12-21T06:27:59.839Z,37.40
2017-12-21T06:30:27.473Z,30.90
2017-12-21T06:32:55.095Z,35.47
2017-12-21T06:35:23.580Z,37.20
2017-12-21T06:37:51.214Z,34.43
2017-12-21T06:40:18.895Z,36.83
2017-12-21T06:42:47.316Z,36.23
2017-12-21T06:45:15.754Z,34.90
2017-12-21T06:47:44.157Z,29.30
2017-12-21T06:50:11.830Z,32.80
2017-12-21T06:52:39.447Z,29.97
2017-12-21T06:55:07.123Z,38.80
2017-12-21T06:57:35.571Z,39.17
2017-12-21T07:00:03.320Z,37.93
2017-12-21T07:02:31.079Z,33.67
2017-12-21T07:04:58.768Z,47.00
2017-12-21T07:07:26.459Z,46.50
2017-12-21T07:09:54.914Z,39.93
2017-12-21T07:12:22.578Z,38.10
2017-12-21T07:14:50.215Z,36.90
2017-12-21T07:17:17.904Z,32.77
2017-12-21T07:19:45.640Z,34.53
2017-12-21T07:22:13.277Z,33.27
2017-12-21T07:24:40.900Z,34.03
2017-12-21T07:27:09.358Z,31.50
2017-12-21T07:29:36.987Z,29.50
2017-12-21T07:32:06.200Z,38.13
2017-12-21T07:34:33.942Z,26.97
2017-12-21T07:37:01.603Z,26.40
2017-12-21T07:39:29.243Z,30.23
2017-12-21T07:41:56.914Z,32.27
2017-12-21T07:44:24.634Z,40.03
2017-12-21T07:46:52.267Z,32.00
2017-12-21T07:49:20.024Z,34.43
2017-12-21T07:51:47.668Z,33.40
2017-12-21T07:54:16.643Z,33.83
2017-12-21T07:56:45.851Z,30.20
2017-12-21T07:59:14.474Z,32.47
2017-12-21T08:01:42.175Z,37.70
2017-12-21T08:04:10.785Z,36.80
2017-12-21T08:06:39.491Z,38.50
2017-12-21T08:09:09.773Z,34.80
2017-12-21T08:11:37.536Z,32.43
2017-12-21T08:14:05.974Z,38.33
2017-12-21T08:16:37.507Z,32.97
2017-12-21T08:19:05.957Z,30.00
2017-12-21T08:21:34.459Z,35.37
2017-12-21T08:24:02.967Z,28.87
2017-12-21T08:26:30.677Z,34.17
2017-12-21T08:28:59.125Z,26.33
2017-12-21T08:31:27.604Z,28.50
2017-12-21T08:33:58.685Z,29.57
2017-12-21T08:36:27.679Z,37.80
2017-12-21T08:38:55.309Z,40.10
2017-12-21T08:41:27.591Z,27.53
2017-12-21T08:43:56.506Z,27.57
2017-12-21T08:46:24.152Z,36.37
2017-12-21T08:48:51.995Z,31.90
2017-12-21T08:51:19.640Z,31.73
2017-12-21T08:53:47.276Z,28.60
2017-12-21T08:56:15.046Z,32.70
2017-12-21T08:58:42.738Z,25.70
2017-12-21T09:01:10.338Z,25.33
2017-12-21T09:03:38.140Z,25.90
2017-12-21T09:06:05.790Z,30.00
2017-12-21T09:08:33.454Z,28.13
2017-12-21T09:11:01.156Z,26.57
2017-12-21T09:13:29.560Z,25.17
2017-12-21T09:15:57.202Z,28.83
2017-12-21T09:18:25.038Z,34.17
2017-12-21T09:20:53.491Z,27.13
2017-12-21T09:23:22.064Z,31.33
2017-12-21T09:25:49.830Z,29.40
2017-12-21T09:28:17.496Z,27.20
2017-12-21T09:30:45.234Z,24.37
2017-12-21T09:33:14.360Z,25.07
2017-12-21T09:35:42.058Z,30.07
2017-12-21T09:38:09.782Z,26.47
2017-12-21T09:40:37.488Z,25.30
2017-12-21T09:43:05.123Z,28.47
2017-12-21T09:45:32.749Z,22.47
2017-12-21T09:48:02.540Z,31.43
2017-12-21T09:50:30.931Z,27.77
2017-12-21T09:53:01.783Z,30.63
2017-12-21T09:55:29.416Z,27.90
2017-12-21T09:57:57.066Z,42.63
2017-12-21T10:00:25.551Z,28.47
2017-12-21T10:02:54.055Z,41.73
2017-12-21T10:05:21.853Z,37.43
2017-12-21T10:07:49.611Z,35.77
2017-12-21T10:10:17.291Z,35.60
2017-12-21T10:12:45.758Z,43.47
2017-12-21T10:15:13.582Z,46.97
2017-12-21T10:17:43.159Z,45.60
2017-12-21T10:20:10.805Z,40.60
2017-12-21T10:22:38.512Z,36.20
2017-12-21T10:25:06.125Z,36.20
2017-12-21T10:27:33.827Z,36.90
2017-12-21T10:30:03.121Z,39.43
2017-12-21T10:32:30.819Z,37.47
2017-12-21T10:34:59.272Z,40.33
2017-12-21T10:37:26.976Z,33.27
2017-12-21T10:39:54.634Z,30.37
2017-12-21T10:42:22.313Z,36.37
2017-12-21T10:44:50.020Z,26.87
2017-12-21T10:47:18.404Z,36.63
2017-12-21T10:49:46.936Z,36.30
2017-12-21T10:52:16.115Z,31.33
2017-12-21T10:54:43.766Z,45.50
2017-12-21T10:57:14.267Z,45.77
2017-12-21T10:59:42.661Z,39.73
2017-12-21T11:02:10.331Z,42.03
2017-12-21T11:04:38.018Z,42.23
2017-12-21T11:07:05.840Z,36.53
2017-12-21T11:09:34.968Z,36.43
2017-12-21T11:12:02.664Z,40.67
2017-12-21T11:14:31.339Z,45.10
2017-12-21T11:16:59.745Z,38.70
2017-12-21T11:19:29.439Z,36.43
2017-12-21T11:21:57.233Z,34.27
2017-12-21T11:24:25.402Z,35.80
2017-12-21T11:26:53.823Z,23.87
2017-12-21T11:29:21.553Z,28.27
2017-12-21T11:31:49.228Z,34.27
2017-12-21T11:34:16.866Z,40.30
2017-12-21T11:36:46.063Z,47.53
2017-12-21T11:39:13.710Z,41.50
2017-12-21T11:41:41.417Z,46.20
2017-12-21T11:44:12.323Z,44.77
2017-12-21T11:46:39.974Z,44.37
2017-12-21T11:49:10.174Z,46.30
2017-12-21T11:51:37.878Z,31.30
2017-12-21T11:54:05.567Z,22.43
2017-12-21T11:56:33.379Z,31.30
2017-12-21T11:59:01.871Z,25.73
2017-12-21T12:01:30.842Z,27.00
2017-12-21T12:03:58.646Z,20.20
2017-12-21T12:06:26.420Z,18.57
2017-12-21T12:08:54.090Z,13.43
2017-12-21T12:11:21.946Z,13.93
2017-12-21T12:13:49.599Z,16.27
2017-12-21T12:16:17.349Z,18.10
2017-12-21T12:18:45.810Z,12.40
2017-12-21T12:21:14.205Z,13.60
2017-12-21T12:23:41.849Z,12.00
2017-12-21T12:26:09.726Z,14.87
2017-12-21T12:28:38.156Z,16.50
2017-12-21T12:31:06.593Z,12.83
2017-12-21T12:33:35.134Z,12.37
2017-12-21T12:36:02.820Z,10.90
2017-12-21T12:38:31.772Z,18.40
2017-12-21T12:40:59.498Z,17.23
2017-12-21T12:43:27.356Z,11.27
2017-12-21T12:45:55.888Z,11.67
2017-12-21T12:48:23.684Z,15.70
2017-12-21T12:50:51.317Z,20.77
2017-12-21T12:53:19.024Z,31.70
2017-12-21T12:55:46.768Z,18.70
2017-12-21T12:58:14.411Z,19.13
2017-12-21T13:00:42.147Z,28.63
2017-12-21T13:03:10.528Z,19.37
2017-12-21T13:05:38.202Z,23.40
2017-12-21T13:08:05.911Z,19.50
2017-12-21T13:10:34.463Z,31.13
2017-12-21T13:13:02.220Z,13.87
2017-12-21T13:15:29.870Z,34.53
2017-12-21T13:17:57.609Z,16.87
2017-12-21T13:20:25.231Z,16.60
2017-12-21T13:22:53.640Z,18.90
2017-12-21T13:25:23.255Z,22.13
2017-12-21T13:27:50.917Z,18.30
2017-12-21T13:30:18.590Z,19.77
2017-12-21T13:32:46.291Z,16.63
2017-12-21T13:35:14.847Z,35.30
2017-12-21T13:37:43.662Z,16.03
2017-12-21T13:40:11.584Z,23.80
2017-12-21T13:42:39.261Z,20.17
2017-12-21T13:45:06.919Z,14.77
2017-12-21T13:47:34.678Z,16.33
2017-12-21T13:50:02.338Z,14.93
2017-12-21T13:52:31.194Z,16.33
2017-12-21T13:54:59.712Z,17.13
2017-12-21T13:57:27.391Z,15.57
2017-12-21T13:59:55.055Z,16.23
2017-12-21T14:02:22.942Z,14.13
2017-12-21T14:04:50.603Z,16.00
2017-12-21T14:07:18.245Z,15.73
2017-12-21T14:09:47.595Z,23.53
2017-12-21T14:12:15.210Z,15.77
2017-12-21T14:14:42.853Z,14.27
2017-12-21T14:17:10.576Z,17.33
2017-12-21T14:19:38.364Z,16.53
2017-12-21T14:22:06.039Z,18.10
2017-12-21T14:24:36.628Z,22.60
2017-12-21T14:27:04.292Z,10.63
2017-12-21T14:29:31.958Z,17.50
2017-12-21T14:31:59.804Z,20.70
2017-12-21T14:34:28.216Z,15.40
2017-12-21T14:36:56.930Z,24.10
2017-12-21T14:39:24.692Z,26.10
2017-12-21T14:41:52.345Z,17.50
2017-12-21T14:44:20.037Z,19.33
2017-12-21T14:46:48.562Z,17.60
2017-12-21T14:49:17.255Z,19.63
2017-12-21T14:51:45.562Z,19.43
2017-12-21T14:54:13.330Z,12.70
2017-12-21T14:56:41.021Z,25.77
2017-12-21T14:59:09.486Z,19.57
2017-12-21T15:01:37.212Z,26.80
2017-12-21T15:04:04.931Z,11.63
2017-12-21T15:06:33.445Z,11.50
2017-12-21T15:09:01.271Z,15.80
2017-12-21T15:11:28.896Z,18.20
2017-12-21T15:13:56.637Z,16.27
2017-12-21T15:16:28.571Z,23.10
2017-12-21T15:18:56.299Z,14.87
2017-12-21T15:21:23.966Z,12.07
2017-12-21T15:23:51.693Z,14.87
2017-12-21T15:26:19.356Z,18.77
2017-12-21T15:28:47.641Z,17.17
2017-12-21T15:31:15.491Z,14.80
2017-12-21T15:33:43.266Z,18.33
2017-12-21T15:36:10.939Z,24.77
2017-12-21T15:38:38.696Z,30.00
2017-12-21T15:41:06.398Z,19.60
2017-12-21T15:43:34.233Z,21.87
2017-12-21T15:46:02.077Z,20.10
2017-12-21T15:48:29.735Z,18.07
2017-12-21T15:50:57.469Z,20.57
2017-12-21T15:53:25.214Z,21.77
2017-12-21T15:55:52.941Z,21.27
2017-12-21T15:58:20.623Z,25.13
2017-12-21T16:00:49.165Z,19.60
2017-12-21T16:03:16.999Z,24.60
2017-12-21T16:05:45.480Z,20.93
2017-12-21T16:08:13.403Z,21.73
2017-12-21T16:10:41.097Z,16.37
2017-12-21T16:13:10.032Z,20.23
2017-12-21T16:15:37.730Z,18.17
2017-12-21T16:18:05.361Z,22.60
2017-12-21T16:20:33.040Z,25.30
2017-12-21T16:23:00.816Z,29.83
2017-12-21T16:25:28.575Z,28.80
2017-12-21T16:27:56.243Z,24.10
2017-12-21T16:30:24.198Z,32.17
2017-12-21T16:32:51.878Z,43.30
2017-12-21T16:35:19.566Z,28.70
2017-12-21T16:37:48.092Z,24.50
2017-12-21T16:40:15.729Z,29.83
2017-12-21T16:42:43.456Z,35.20
2017-12-21T16:45:11.386Z,23.33
2017-12-21T16:47:39.847Z,19.27
2017-12-21T16:50:07.758Z,23.87
2017-12-21T16:52:36.478Z,19.33
2017-12-21T16:55:04.906Z,21.30
2017-12-21T16:57:32.546Z,18.60
2017-12-21T17:00:01.069Z,23.83
2017-12-21T17:02:29.129Z,27.30
2017-12-21T17:04:56.867Z,25.73
2017-12-21T17:07:24.587Z,26.00
2017-12-21T17:09:53.030Z,26.30
2017-12-21T17:12:20.693Z,23.27
2017-12-21T17:14:48.442Z,18.63
2017-12-21T17:17:16.421Z,32.57
2017-12-21T17:19:44.220Z,28.17
2017-12-21T17:22:11.918Z,23.10
2017-12-21T17:24:39.620Z,59.80
2017-12-21T17:27:07.299Z,26.30
2017-12-21T17:29:35.090Z,27.10
2017-12-21T17:32:03.542Z,23.70
2017-12-21T17:34:31.345Z,23.93
2017-12-21T17:36:59.587Z,26.30
2017-12-21T17:39:28.526Z,19.23
2017-12-21T17:41:56.227Z,37.43
2017-12-21T17:44:23.983Z,38.37
2017-12-21T17:46:52.487Z,51.60
2017-12-21T17:49:20.290Z,21.73
2017-12-21T17:51:48.133Z,37.80
2017-12-21T17:54:15.882Z,24.47
2017-12-21T17:56:44.359Z,20.17
2017-12-21T17:59:12.197Z,18.33
2017-12-21T18:01:39.849Z,41.47
2017-12-21T18:04:07.552Z,21.87
2017-12-21T18:06:35.246Z,19.37
2017-12-21T18:09:02.872Z,28.97
2017-12-21T18:11:30.715Z,33.57
2017-12-21T18:13:59.424Z,25.90
2017-12-21T18:16:27.848Z,21.87
2017-12-21T18:18:55.502Z,24.63
2017-12-21T18:21:23.220Z,36.20
2017-12-21T18:23:50.875Z,26.77
2017-12-21T18:26:18.500Z,37.87
2017-12-21T18:28:46.863Z,22.37
2017-12-21T18:31:14.833Z,24.23
2017-12-21T18:33:42.484Z,21.03
2017-12-21T18:36:10.205Z,25.07
2017-12-21T18:38:38.865Z,24.27
2017-12-21T18:41:06.800Z,26.17
2017-12-21T18:43:36.293Z,25.67
2017-12-21T18:46:05.509Z,20.47
2017-12-21T18:48:33.176Z,25.90
2017-12-21T18:51:01.027Z,26.00
2017-12-21T18:53:28.664Z,24.17
2017-12-21T18:55:57.068Z,32.73
2017-12-21T18:58:24.890Z,29.80
2017-12-21T19:00:52.742Z,21.63
2017-12-21T19:03:20.685Z,23.27
2017-12-21T19:05:49.401Z,26.47
2017-12-21T19:08:17.076Z,26.37
2017-12-21T19:10:44.954Z,24.90
2017-12-21T19:13:12.753Z,21.50
2017-12-21T19:15:41.336Z,24.90
2017-12-21T19:18:08.994Z,28.67
2017-12-21T19:20:36.850Z,25.20
2017-12-21T19:23:05.291Z,21.03
2017-12-21T19:25:32.950Z,17.83
2017-12-21T19:28:01.581Z,19.23
2017-12-21T19:30:30.033Z,27.97
2017-12-21T19:32:57.666Z,30.47
2017-12-21T19:35:25.555Z,25.63
2017-12-21T19:37:53.843Z,25.83
2017-12-21T19:40:21.479Z,29.63
2017-12-21T19:42:49.567Z,29.30
2017-12-21T19:45:17.418Z,22.10
2017-12-21T19:47:45.066Z,22.40
2017-12-21T19:50:12.967Z,38.80
2017-12-21T19:52:41.385Z,27.93
2017-12-21T19:55:09.014Z,28.27
2017-12-21T19:57:36.735Z,28.17
2017-12-21T20:00:04.381Z,24.70
2017-12-21T20:02:32.439Z,26.13
2017-12-21T20:05:00.188Z,20.77
2017-12-21T20:07:27.978Z,24.63
2017-12-21T20:09:55.622Z,26.07
2017-12-21T20:12:23.389Z,22.60
2017-12-21T20:14:51.046Z,18.30
2017-12-21T20:17:18.701Z,22.33
2017-12-21T20:19:46.509Z,24.53
2017-12-21T20:22:14.135Z,23.00
2017-12-21T20:24:41.759Z,26.17
2017-12-21T20:27:09.441Z,25.40
2017-12-21T20:29:37.876Z,36.93
2017-12-21T20:32:05.493Z,21.33
2017-12-21T20:34:33.253Z,27.03
2017-12-21T20:37:00.909Z,24.77
2017-12-21T20:39:28.562Z,27.60
2017-12-21T20:41:57.148Z,50.90
2017-12-21T20:44:25.560Z,186.50
2017-12-21T20:46:53.966Z,140.50
2017-12-21T20:49:21.670Z,33.87
2017-12-21T20:51:50.199Z,30.43
2017-12-21T20:54:17.841Z,20.37
2017-12-21T20:56:45.699Z,25.20
2017-12-21T20:59:13.351Z,25.63
2017-12-21T21:01:41.755Z,24.03
2017-12-21T21:04:10.321Z,25.93
2017-12-21T21:06:38.046Z,23.53
2017-12-21T21:09:05.660Z,18.33
2017-12-21T21:11:34.407Z,21.23
2017-12-21T21:14:02.079Z,75.90
2017-12-21T21:16:30.462Z,185.37
2017-12-21T21:18:58.223Z,34.47
2017-12-21T21:21:25.889Z,30.57
2017-12-21T21:23:53.570Z,35.20
2017-12-21T21:26:21.266Z,44.73
2017-12-21T21:28:48.942Z,29.30
2017-12-21T21:31:16.569Z,35.93
2017-12-21T21:33:44.225Z,20.87
2017-12-21T21:36:11.877Z,22.87
2017-12-21T21:38:39.500Z,28.83
2017-12-21T21:41:07.935Z,22.80
2017-12-21T21:43:35.571Z,20.87
2017-12-21T21:46:03.384Z,20.80
2017-12-21T21:48:31.046Z,21.07
2017-12-21T21:50:58.660Z,19.77
2017-12-21T21:53:26.332Z,19.00
2017-12-21T21:55:54.002Z,19.57
2017-12-21T21:58:21.644Z,18.07
2017-12-21T22:00:50.154Z,24.07
2017-12-21T22:03:17.876Z,14.90
2017-12-21T22:05:46.052Z,19.97
2017-12-21T22:08:13.670Z,16.33
2017-12-21T22:10:41.356Z,26.80
2017-12-21T22:13:09.748Z,19.90
2017-12-21T22:15:37.369Z,23.10
2017-12-21T22:18:05.053Z,16.70
2017-12-21T22:20:33.460Z,15.80
2017-12-21T22:23:01.132Z,17.13
2017-12-21T22:25:28.837Z,15.83
2017-12-21T22:27:56.458Z,15.70
2017-12-21T22:30:24.092Z,22.53
2017-12-21T22:32:51.794Z,18.03
2017-12-21T22:35:19.434Z,15.73
2017-12-21T22:37:47.085Z,23.30
2017-12-21T22:40:14.803Z,19.53
2017-12-21T22:42:42.593Z,14.60
2017-12-21T22:45:10.999Z,15.33
2017-12-21T22:47:38.749Z,17.13
2017-12-21T22:50:06.387Z,19.33
2017-12-21T22:52:34.060Z,16.10
2017-12-21T22:55:02.546Z,18.13
2017-12-21T22:57:30.994Z,16.70
2017-12-21T22:59:58.637Z,19.83
2017-12-21T23:02:26.439Z,13.80
2017-12-21T23:04:54.939Z,25.37
2017-12-21T23:07:22.603Z,16.23
2017-12-21T23:09:50.263Z,18.53
2017-12-21T23:12:17.876Z,16.13
2017-12-21T23:14:45.504Z,19.10
2017-12-21T23:17:13.163Z,14.10
2017-12-21T23:19:40.841Z,18.50
2017-12-21T23:22:08.467Z,14.63
2017-12-21T23:24:36.136Z,14.13
2017-12-21T23:27:03.765Z,14.50
2017-12-21T23:29:31.442Z,16.97
2017-12-21T23:31:59.108Z,15.63
2017-12-21T23:34:26.716Z,14.93
2017-12-21T23:36:54.360Z,17.60
2017-12-21T23:39:22.029Z,13.43
2017-12-21T23:41:49.663Z,12.93
2017-12-21T23:44:17.282Z,8.80
2017-12-21T23:46:44.953Z,13.63
2017-12-21T23:49:12.602Z,12.80
2017-12-21T23:51:40.237Z,17.30
2017-12-21T23:54:07.910Z,16.17
2017-12-21T23:56:35.562Z,13.63
2017-12-21T23:59:03.182Z,11.80
